Time;durP1;ratioP1;P1;durP2;ratioP2;P2;SDS_P1;SDS_P2;PMS_P1;PMS_P2;Temp;Humidity;BMP_temperature;BMP_pressure;BME280_temperature;BME280_humidity;BME280_pressure;Samples;Min_cycle;Max_cycle;Signal;HPM_P1;HPM_P2
2021/09/24 00:01:50;;;;;;;5.93;1.40;;;;;;;14.14;100.00;100461.72;6403870;23;20004;-78
2021/09/24 00:04:20;;;;;;;10.50;1.42;;;;;;;14.16;100.00;100457.25;6403687;23;20005;-78
2021/09/24 00:06:50;;;;;;;7.47;1.55;;;;;;;14.11;100.00;100452.19;6403751;23;20008;-78
2021/09/24 00:09:21;;;;;;;5.03;1.48;;;;;;;14.07;100.00;100455.91;6403623;23;20001;-78
2021/09/24 00:11:51;;;;;;;5.80;1.17;;;;;;;14.03;100.00;100450.91;6392357;23;20004;-78
2021/09/24 00:14:21;;;;;;;5.30;1.50;;;;;;;13.97;100.00;100457.34;6403573;23;20039;-78
2021/09/24 00:16:52;;;;;;;6.22;1.67;;;;;;;14.02;100.00;100451.81;6404239;23;20032;-79
2021/09/24 00:19:22;;;;;;;6.30;1.40;;;;;;;14.08;100.00;100455.00;6406980;23;19997;-80
2021/09/24 00:21:52;;;;;;;11.15;1.98;;;;;;;14.03;100.00;100464.03;6411715;23;20000;-80
2021/09/24 00:24:23;;;;;;;7.95;2.17;;;;;;;14.05;100.00;100470.09;6407103;23;19997;-80
2021/09/24 00:26:53;;;;;;;8.90;1.52;;;;;;;14.13;100.00;100465.28;6406805;23;20004;-80
2021/09/24 00:29:23;;;;;;;7.22;1.40;;;;;;;14.08;100.00;100473.38;6402860;23;20456;-80
2021/09/24 00:31:54;;;;;;;10.82;1.70;;;;;;;14.15;100.00;100473.94;6396108;23;20020;-80
2021/09/24 00:34:25;;;;;;;8.35;1.80;;;;;;;14.22;100.00;100478.81;6410632;23;20012;-79
2021/09/24 00:36:55;;;;;;;12.13;2.38;;;;;;;14.18;100.00;100481.69;6407446;23;20005;-80
2021/09/24 00:39:25;;;;;;;9.52;1.88;;;;;;;14.12;100.00;100471.47;6397192;23;20051;-78
2021/09/24 00:41:56;;;;;;;15.15;2.25;;;;;;;14.13;100.00;100481.91;6402028;23;20028;-77
2021/09/24 00:44:28;;;;;;;10.02;2.25;;;;;;;14.16;100.00;100479.16;6398144;23;20011;-80
2021/09/24 00:46:59;;;;;;;9.80;1.50;;;;;;;14.15;100.00;100481.81;6396105;23;20385;-79
2021/09/24 00:49:30;;;;;;;9.77;2.35;;;;;;;14.13;100.00;100467.91;6406315;23;20261;-80
2021/09/24 00:52:00;;;;;;;9.07;1.80;;;;;;;14.15;100.00;100471.28;6396762;23;20015;-79
2021/09/24 00:54:31;;;;;;;8.63;1.88;;;;;;;14.15;100.00;100466.03;6405426;23;20001;-79
2021/09/24 00:57:03;;;;;;;7.32;2.13;;;;;;;14.07;100.00;100468.22;6396617;23;20008;-79
2021/09/24 00:59:34;;;;;;;12.40;1.92;;;;;;;14.10;100.00;100484.66;6393571;23;20009;-79
2021/09/24 01:02:05;;;;;;;13.00;1.60;;;;;;;14.05;100.00;100477.97;6406585;23;20005;-79
2021/09/24 01:04:35;;;;;;;10.75;1.88;;;;;;;14.05;100.00;100481.44;6395098;23;20408;-79
2021/09/24 01:07:06;;;;;;;12.07;1.92;;;;;;;14.07;100.00;100476.94;6405264;23;20024;-79
2021/09/24 01:09:38;;;;;;;8.35;1.80;;;;;;;14.02;100.00;100472.84;6394997;23;20012;-80
2021/09/24 01:12:09;;;;;;;5.93;1.50;;;;;;;14.03;100.00;100485.06;6395039;23;20024;-79
2021/09/24 01:14:39;;;;;;;10.57;1.85;;;;;;;14.04;100.00;100481.50;6405168;23;20358;-79
2021/09/24 01:17:09;;;;;;;8.40;1.80;;;;;;;14.03;100.00;100490.31;6411530;23;20004;-80
2021/09/24 01:19:40;;;;;;;11.70;2.25;;;;;;;14.11;100.00;100488.16;6398579;23;20152;-80
2021/09/24 01:22:10;;;;;;;7.90;1.77;;;;;;;14.02;100.00;100483.34;6402308;23;20095;-80
2021/09/24 01:24:41;;;;;;;12.88;2.20;;;;;;;13.90;100.00;100489.25;6398634;23;20005;-79
2021/09/24 01:27:11;;;;;;;9.75;2.45;;;;;;;13.96;100.00;100494.19;6402227;23;20008;-79
2021/09/24 01:29:42;;;;;;;11.10;1.88;;;;;;;14.01;100.00;100493.03;6409381;23;20031;-79
2021/09/24 01:32:12;;;;;;;9.02;1.92;;;;;;;13.94;100.00;100493.41;6409161;23;20001;-80
2021/09/24 01:34:43;;;;;;;10.20;2.05;;;;;;;13.85;100.00;100501.75;6396284;23;20008;-78
2021/09/24 01:37:13;;;;;;;6.22;1.60;;;;;;;13.90;100.00;100494.50;6407832;23;20012;-79
2021/09/24 01:39:44;;;;;;;7.80;2.05;;;;;;;13.80;100.00;100495.88;6396368;23;20009;-79
2021/09/24 01:42:14;;;;;;;8.98;2.10;;;;;;;13.72;100.00;100496.25;6408484;23;20001;-80
2021/09/24 01:44:44;;;;;;;8.82;1.70;;;;;;;13.77;100.00;100491.63;6409698;23;19997;-78
2021/09/24 01:47:15;;;;;;;11.07;2.03;;;;;;;13.73;100.00;100491.88;6409076;23;19997;-80
2021/09/24 01:49:45;;;;;;;9.63;1.80;;;;;;;13.72;100.00;100492.81;6411584;23;20001;-80
2021/09/24 01:52:16;;;;;;;9.85;1.88;;;;;;;13.61;100.00;100489.84;6408832;23;20345;-79
2021/09/24 01:54:46;;;;;;;9.05;2.03;;;;;;;13.57;100.00;100481.25;6400246;23;20016;-80
2021/09/24 01:57:16;;;;;;;9.50;2.20;;;;;;;13.62;100.00;100489.78;6397046;23;20008;-78
2021/09/24 01:59:47;;;;;;;9.32;2.22;;;;;;;13.60;100.00;100490.78;6405379;23;20028;-79
2021/09/24 02:02:17;;;;;;;10.05;1.90;;;;;;;13.49;100.00;100491.31;6408487;23;20056;-79
2021/09/24 02:04:47;;;;;;;11.20;2.33;;;;;;;13.60;100.00;100499.47;6408564;23;20001;-79
2021/09/24 02:07:18;;;;;;;7.85;1.95;;;;;;;13.64;100.00;100497.56;6396156;23;20005;-79
2021/09/24 02:09:48;;;;;;;8.57;2.13;;;;;;;13.44;100.00;100495.06;6411194;23;20009;-79
2021/09/24 02:12:18;;;;;;;13.77;2.20;;;;;;;13.51;100.00;100493.84;6396591;23;20429;-79
2021/09/24 02:14:49;;;;;;;7.13;2.13;;;;;;;13.39;100.00;100491.81;6408468;23;20067;-79
2021/09/24 02:17:19;;;;;;;8.57;1.80;;;;;;;13.46;100.00;100498.47;6412334;23;20009;-80
2021/09/24 02:19:49;;;;;;;9.73;1.80;;;;;;;13.44;100.00;100495.06;6409466;23;20336;-80
2021/09/24 02:22:20;;;;;;;9.68;1.50;;;;;;;13.42;100.00;100504.78;6411855;23;20172;-80
2021/09/24 02:24:50;;;;;;;12.63;2.10;;;;;;;13.40;100.00;100504.84;6399489;23;20004;-80
2021/09/24 02:27:20;;;;;;;6.68;1.55;;;;;;;13.45;100.00;100504.66;6396188;23;20000;-80
2021/09/24 02:29:51;;;;;;;9.57;1.85;;;;;;;13.45;100.00;100499.41;6407053;23;20028;-80
2021/09/24 02:32:21;;;;;;;9.32;1.88;;;;;;;13.42;100.00;100504.78;6398726;23;20003;-80
2021/09/24 02:34:51;;;;;;;9.43;2.03;;;;;;;13.45;100.00;100499.41;6411733;23;20257;-79
2021/09/24 02:37:21;;;;;;;6.13;1.73;;;;;;;13.36;100.00;100502.44;6407125;23;20000;-79
2021/09/24 02:39:52;;;;;;;8.50;1.90;;;;;;;13.36;100.00;100520.81;6395549;23;20016;-79
2021/09/24 02:42:22;;;;;;;8.95;2.15;;;;;;;13.35;100.00;100521.75;6408298;23;19997;-79
2021/09/24 02:44:52;;;;;;;7.45;2.17;;;;;;;13.36;100.00;100518.19;6407898;23;19994;-79
2021/09/24 02:47:23;;;;;;;9.40;2.30;;;;;;;13.24;100.00;100522.25;6407586;23;20007;-79
2021/09/24 02:49:53;;;;;;;9.93;2.17;;;;;;;13.22;100.00;100523.28;6395475;23;20001;-79
2021/09/24 02:52:23;;;;;;;7.25;2.33;;;;;;;13.32;100.00;100530.63;6394902;23;20449;-79
2021/09/24 02:54:54;;;;;;;10.43;2.40;;;;;;;13.36;100.00;100533.94;6406650;23;20004;-79
2021/09/24 02:57:24;;;;;;;10.40;2.20;;;;;;;13.21;100.00;100532.06;6407758;23;20001;-79
2021/09/24 02:59:54;;;;;;;13.10;2.20;;;;;;;13.36;100.00;100533.94;6394514;23;20003;-79
2021/09/24 03:02:25;;;;;;;7.43;1.90;;;;;;;13.35;100.00;100537.50;6395653;23;20028;-79
2021/09/24 03:04:55;;;;;;;6.10;1.77;;;;;;;13.28;100.00;100525.59;6394833;23;20060;-79
2021/09/24 03:07:25;;;;;;;11.67;2.20;;;;;;;13.30;100.00;100523.75;6395646;23;20001;-79
2021/09/24 03:09:55;;;;;;;6.65;1.88;;;;;;;13.36;100.00;100539.19;6406746;23;20243;-79
2021/09/24 03:12:26;;;;;;;11.40;2.28;;;;;;;13.39;100.00;100536.44;6406832;23;20011;-79
2021/09/24 03:14:56;;;;;;;7.15;1.77;;;;;;;13.62;100.00;100529.19;6394762;23;20004;-79
2021/09/24 03:17:27;;;;;;;7.20;1.88;;;;;;;13.58;100.00;100529.38;6394481;23;20438;-79
2021/09/24 03:19:58;;;;;;;9.77;2.33;;;;;;;13.51;100.00;100533.22;6394782;23;20001;-79
2021/09/24 03:22:28;;;;;;;6.35;1.70;;;;;;;13.55;100.00;100535.63;6394181;23;20407;-80
2021/09/24 03:24:58;;;;;;;6.60;1.67;;;;;;;13.55;100.00;100545.31;6406704;23;20063;-79
2021/09/24 03:27:29;;;;;;;5.85;1.50;;;;;;;13.57;100.00;100539.03;6405641;23;20004;-79
2021/09/24 03:29:59;;;;;;;6.28;1.55;;;;;;;13.50;100.00;100539.41;6406481;23;20421;-78
2021/09/24 03:32:29;;;;;;;7.68;1.58;;;;;;;13.58;100.00;100548.59;6408154;23;20068;-79
2021/09/24 03:35:02;;;;;;;7.38;1.50;;;;;;;13.51;100.00;100548.97;6406602;23;20001;-79
2021/09/24 03:37:32;;;;;;;8.75;1.55;;;;;;;13.52;100.00;100546.28;6407635;23;20072;-79
2021/09/24 03:40:03;;;;;;;7.00;1.77;;;;;;;13.64;100.00;100550.09;6406597;23;20359;-79
2021/09/24 03:42:33;;;;;;;7.53;1.55;;;;;;;13.64;100.00;100547.47;6406889;23;20004;-79
2021/09/24 03:45:04;;;;;;;7.03;1.65;;;;;;;13.74;100.00;100546.09;6406879;23;20005;-80
2021/09/24 03:47:35;;;;;;;7.50;1.55;;;;;;;13.71;100.00;100552.34;6406939;23;20007;-79
2021/09/24 03:50:06;;;;;;;6.35;1.50;;;;;;;13.54;100.00;100554.94;6395186;23;20001;-79
2021/09/24 03:52:36;;;;;;;7.13;1.42;;;;;;;13.70;100.00;100555.03;6394473;23;20092;-79
2021/09/24 03:55:08;;;;;;;10.10;1.48;;;;;;;13.74;100.00;100546.09;6394967;23;20019;-79
2021/09/24 03:57:38;;;;;;;4.75;1.27;;;;;;;13.63;100.00;100545.75;6394151;23;20001;-79
2021/09/24 04:00:09;;;;;;;8.40;1.33;;;;;;;13.56;100.00;100553.09;6405846;23;20001;-79
2021/09/24 04:02:39;;;;;;;8.60;1.83;;;;;;;13.29;100.00;100548.28;6405074;23;20016;-78
2021/09/24 04:05:10;;;;;;;8.02;1.30;;;;;;;13.33;100.00;100549.84;6394165;23;20024;-79
2021/09/24 04:07:40;;;;;;;7.20;1.35;;;;;;;13.34;100.00;100548.91;6407200;23;20009;-79
2021/09/24 04:10:11;;;;;;;7.30;1.40;;;;;;;13.31;100.00;100555.19;6406052;23;20550;-80
2021/09/24 04:12:41;;;;;;;7.93;1.38;;;;;;;13.15;100.00;100558.56;6405222;23;20029;-80
2021/09/24 04:15:12;;;;;;;8.35;1.25;;;;;;;13.30;100.00;100561.38;6405087;23;20028;-80
2021/09/24 04:17:42;;;;;;;4.88;1.10;;;;;;;13.21;100.00;100555.69;6393342;23;20070;-80
2021/09/24 04:20:13;;;;;;;10.50;1.90;;;;;;;13.15;100.00;100550.72;6405542;23;20005;-80
2021/09/24 04:22:43;;;;;;;6.88;1.33;;;;;;;13.05;100.00;100550.28;6405170;23;20005;-80
2021/09/24 04:25:13;;;;;;;8.18;1.70;;;;;;;13.02;100.00;100558.31;6394098;23;20008;-80
2021/09/24 04:27:43;;;;;;;4.47;1.00;;;;;;;12.98;100.00;100555.03;6405546;23;20012;-80
2021/09/24 04:30:14;;;;;;;5.40;1.20;;;;;;;12.94;100.00;100556.94;6393950;23;20059;-80
2021/09/24 04:32:44;;;;;;;6.82;1.35;;;;;;;13.03;100.00;100552.13;6404526;23;20092;-80
2021/09/24 04:35:15;;;;;;;5.75;1.33;;;;;;;13.02;100.00;100557.44;6392237;23;20008;-80
2021/09/24 04:37:45;;;;;;;10.07;1.70;;;;;;;13.05;100.00;100565.19;6406087;23;20016;-80
2021/09/24 04:40:15;;;;;;;5.20;1.30;;;;;;;13.08;100.00;100559.78;6405856;23;20072;-80
2021/09/24 04:42:46;;;;;;;9.07;1.98;;;;;;;13.01;100.00;100560.97;6406304;23;20016;-80
2021/09/24 04:45:16;;;;;;;8.25;1.25;;;;;;;12.98;100.00;100573.41;6393884;23;20110;-79
2021/09/24 04:47:47;;;;;;;7.13;1.40;;;;;;;13.05;100.00;100570.44;6406940;23;20001;-80
2021/09/24 04:50:17;;;;;;;7.30;1.42;;;;;;;13.05;100.00;100575.69;6394728;23;19997;-80
2021/09/24 04:52:47;;;;;;;7.18;1.05;;;;;;;12.98;100.00;100578.66;6393313;23;20005;-80
2021/09/24 04:55:18;;;;;;;5.32;1.50;;;;;;;12.91;100.00;100570.16;6406158;23;20009;-80
2021/09/24 04:57:48;;;;;;;8.43;1.60;;;;;;;12.81;100.00;100575.91;6405354;23;20001;-80
2021/09/24 05:00:18;;;;;;;6.45;1.27;;;;;;;12.72;100.00;100582.41;6394261;23;20108;-80
2021/09/24 05:02:48;;;;;;;5.90;1.20;;;;;;;12.70;100.00;100573.75;6394269;23;20001;-80
2021/09/24 05:05:19;;;;;;;7.35;1.38;;;;;;;12.69;100.00;100576.44;6405536;23;20001;-80
2021/09/24 05:07:50;;;;;;;7.35;1.48;;;;;;;12.61;100.00;100568.91;6393879;23;20009;-80
2021/09/24 05:10:20;;;;;;;6.70;1.33;;;;;;;12.51;100.00;100578.09;6393845;23;20016;-80
2021/09/24 05:12:50;;;;;;;5.82;1.52;;;;;;;12.51;100.00;100578.09;6393039;23;20597;-80
2021/09/24 05:15:20;;;;;;;4.70;1.30;;;;;;;12.45;100.00;100588.00;6405963;23;20372;-80
2021/09/24 05:17:51;;;;;;;5.25;1.40;;;;;;;12.52;100.00;100576.31;6406525;23;20012;-80
2021/09/24 05:20:21;;;;;;;9.20;1.48;;;;;;;12.59;100.00;100581.22;6405758;23;19997;-80
2021/09/24 05:22:55;;;;;;;4.57;1.50;;;;;;;12.52;100.00;100585.06;6406508;23;20009;-80
2021/09/24 05:25:25;;;;;;;4.28;1.13;;;;;;;12.58;100.00;100589.16;6405055;23;19993;-80
2021/09/24 05:27:56;;;;;;;6.70;1.42;;;;;;;12.52;100.00;100589.44;6402712;23;20225;-80
2021/09/24 05:30:26;;;;;;;5.03;1.33;;;;;;;12.56;100.00;100586.63;6389602;23;19997;-80
2021/09/24 05:32:58;;;;;;;6.55;1.95;;;;;;;12.53;100.00;100586.75;6404710;23;20008;-80
2021/09/24 05:35:28;;;;;;;7.28;1.73;;;;;;;12.55;100.00;100587.53;6403407;23;20329;-80
2021/09/24 05:37:59;;;;;;;5.95;1.70;;;;;;;12.60;100.00;100592.59;6405127;23;20019;-80
2021/09/24 05:40:29;;;;;;;8.38;1.63;;;;;;;12.66;100.00;100598.38;6394159;23;20016;-80
2021/09/24 05:42:59;;;;;;;3.95;1.70;;;;;;;12.75;100.00;100595.38;6406017;23;20004;-80
2021/09/24 05:45:30;;;;;;;8.13;1.90;;;;;;;12.74;100.00;100600.69;6405587;23;20025;-80
2021/09/24 05:48:00;;;;;;;6.97;2.15;;;;;;;12.93;100.00;100599.84;6406842;23;20499;-80
2021/09/24 05:50:31;;;;;;;9.85;2.22;;;;;;;13.02;100.00;100600.28;6394940;23;20005;-80
2021/09/24 05:53:02;;;;;;;7.43;2.00;;;;;;;13.17;100.00;100596.97;6406655;23;20008;-80
2021/09/24 05:55:33;;;;;;;10.90;2.38;;;;;;;13.17;100.00;100601.34;6394778;23;20009;-80
2021/09/24 05:58:03;;;;;;;4.82;2.10;;;;;;;13.19;100.00;100596.88;6395325;23;20012;-80
2021/09/24 06:00:33;;;;;;;8.27;1.90;;;;;;;13.11;100.00;100594.63;6395003;23;20008;-80
2021/09/24 06:03:03;;;;;;;5.43;1.83;;;;;;;13.24;100.00;100598.38;6395580;23;20005;-80
2021/09/24 06:05:34;;;;;;;7.88;1.90;;;;;;;13.38;100.00;100589.88;6409023;23;20004;-80
2021/09/24 06:08:04;;;;;;;6.72;2.20;;;;;;;13.48;100.00;100596.38;6408158;23;20357;-80
2021/09/24 06:10:35;;;;;;;9.32;2.38;;;;;;;13.42;100.00;100597.53;6409078;23;20008;-80
2021/09/24 06:13:06;;;;;;;6.57;1.98;;;;;;;13.46;100.00;100587.72;6408195;23;20015;-80
2021/09/24 06:15:37;;;;;;;7.00;2.20;;;;;;;13.36;100.00;100592.56;6408130;23;20053;-80
2021/09/24 06:18:07;;;;;;;4.85;2.08;;;;;;;13.53;100.00;100594.38;6396463;23;20013;-80
2021/09/24 06:20:38;;;;;;;5.28;1.90;;;;;;;13.50;100.00;100586.66;6408260;23;19997;-80
2021/09/24 06:23:09;;;;;;;4.90;1.70;;;;;;;13.55;100.00;100598.66;6409270;23;20001;-80
2021/09/24 06:25:39;;;;;;;4.63;1.75;;;;;;;13.77;100.00;100595.88;6408580;23;20429;-80
2021/09/24 06:28:09;;;;;;;6.65;2.00;;;;;;;13.83;100.00;100603.44;6396121;23;20013;-80
2021/09/24 06:30:40;;;;;;;5.70;2.08;;;;;;;13.77;100.00;100596.69;6396371;23;20033;-80
2021/09/24 06:33:10;;;;;;;5.03;1.73;;;;;;;13.73;100.00;100594.31;6396918;23;20068;-80
2021/09/24 06:35:40;;;;;;;4.90;1.52;;;;;;;14.00;100.00;100599.09;6396292;23;20383;-80
2021/09/24 06:38:11;;;;;;;7.55;1.85;;;;;;;13.85;100.00;100597.19;6408470;23;20008;-80
2021/09/24 06:40:41;;;;;;;5.10;1.80;;;;;;;13.88;100.00;100591.78;6408670;23;20031;-80
2021/09/24 06:43:11;;;;;;;9.10;2.08;;;;;;;13.95;100.00;100597.59;6407645;23;20001;-80
2021/09/24 06:45:42;;;;;;;4.20;1.40;;;;;;;14.04;100.00;100591.88;6408597;23;20003;-80
2021/09/24 06:48:12;;;;;;;4.63;1.52;;;;;;;14.16;100.00;100596.56;6397045;23;20369;-80
2021/09/24 06:50:43;;;;;;;5.00;1.67;;;;;;;14.28;100.00;100593.34;6408919;23;20032;-80
2021/09/24 06:53:13;;;;;;;4.70;1.30;;;;;;;14.24;100.00;100591.78;6408442;23;20001;-80
2021/09/24 06:55:43;;;;;;;5.65;1.77;;;;;;;14.23;100.00;100597.97;6408240;23;20008;-80
2021/09/24 06:58:13;;;;;;;7.00;2.38;;;;;;;14.36;100.00;100594.66;6408463;23;20001;-80
2021/09/24 07:00:44;;;;;;;4.30;1.67;;;;;;;14.60;100.00;100596.00;6396345;23;20028;-80
2021/09/24 07:03:14;;;;;;;4.40;1.35;;;;;;;14.63;100.00;100589.75;6395971;23;20035;-80
2021/09/24 07:05:44;;;;;;;5.17;1.50;;;;;;;14.66;100.00;100600.13;6408027;23;20381;-80
2021/09/24 07:08:14;;;;;;;3.70;1.20;;;;;;;14.70;100.00;100594.63;6407142;23;20232;-80
2021/09/24 07:10:45;;;;;;;6.07;1.25;;;;;;;14.57;100.00;100590.91;6407770;23;20001;-80
2021/09/24 07:13:15;;;;;;;3.88;1.40;;;;;;;14.59;100.00;100596.13;6407990;23;20028;-80
2021/09/24 07:15:45;;;;;;;4.43;1.20;;;;;;;14.64;100.00;100584.44;6395861;23;20012;-80
2021/09/24 07:18:15;;;;;;;6.68;1.38;;;;;;;14.75;100.00;100591.75;6408376;23;20029;-80
2021/09/24 07:20:46;;;;;;;6.50;1.30;;;;;;;14.80;100.00;100587.09;6397111;23;20001;-80
2021/09/24 07:23:16;;;;;;;5.10;1.27;;;;;;;14.91;100.00;100588.22;6396804;23;20012;-80
2021/09/24 07:25:47;;;;;;;5.75;1.30;;;;;;;15.00;100.00;100590.38;6408228;23;19996;-80
2021/09/24 07:28:18;;;;;;;4.43;1.30;;;;;;;14.99;100.00;100586.88;6407989;23;20076;-80
2021/09/24 07:30:48;;;;;;;4.57;1.33;;;;;;;15.14;100.00;100588.69;6408758;23;20005;-81
2021/09/24 07:33:18;;;;;;;3.53;1.10;;;;;;;15.40;100.00;100580.25;6407860;23;20001;-80
2021/09/24 07:35:49;;;;;;;5.60;1.23;;;;;;;15.46;100.00;100587.84;6395771;23;20005;-81
2021/09/24 07:38:21;;;;;;;5.38;1.17;;;;;;;15.52;100.00;100591.91;6396160;23;20306;-80
2021/09/24 07:40:52;;;;;;;4.93;1.30;;;;;;;15.35;100.00;100600.72;6396306;23;20009;-80
2021/09/24 07:43:22;;;;;;;3.25;1.10;;;;;;;15.51;100.00;100598.97;6405900;23;20583;-80
2021/09/24 07:45:55;;;;;;;2.75;1.00;;;;;;;15.40;100.00;100593.41;6407606;23;20008;-80
2021/09/24 07:48:26;;;;;;;3.65;1.17;;;;;;;15.66;100.00;100600.75;6407344;23;20007;-80
2021/09/24 07:50:56;;;;;;;4.57;1.30;;;;;;;15.35;100.00;100595.47;6407869;23;20043;-80
2021/09/24 07:53:27;;;;;;;5.07;1.08;;;;;;;15.44;100.00;100599.38;6395151;23;20008;-80
2021/09/24 07:55:57;;;;;;;2.92;1.00;;;;;;;15.62;100.00;100603.63;6396056;23;20004;-80
2021/09/24 07:58:28;;;;;;;3.28;1.10;;;;;;;15.44;100.00;100605.50;6407530;23;20007;-80
2021/09/24 08:00:58;;;;;;;8.73;1.35;;;;;;;15.48;100.00;100604.41;6407992;23;20007;-81
2021/09/24 08:03:29;;;;;;;5.53;1.40;;;;;;;15.52;100.00;100605.09;6408306;23;20552;-81
2021/09/24 08:05:59;;;;;;;5.18;1.20;;;;;;;15.59;100.00;100604.66;6395942;23;20005;-80
2021/09/24 08:08:30;;;;;;;2.80;1.00;;;;;;;15.44;100.00;100604.66;6407304;23;20139;-80
2021/09/24 08:11:01;;;;;;;3.83;0.93;;;;;;;15.44;100.00;100602.88;6396466;23;20033;-81
2021/09/24 08:13:32;;;;;;;3.03;1.00;;;;;;;15.59;100.00;100607.31;6396517;23;20051;-80
2021/09/24 08:16:03;;;;;;;4.13;0.95;;;;;;;15.66;100.00;100602.50;6397000;23;20005;-81
2021/09/24 08:18:33;;;;;;;7.68;1.65;;;;;;;15.69;100.00;100597.94;6407925;23;20004;-80
2021/09/24 08:21:04;;;;;;;5.50;1.20;;;;;;;15.67;100.00;100597.19;6407856;23;20032;-81
2021/09/24 08:23:37;;;;;;;4.90;1.23;;;;;;;15.86;100.00;100591.72;6407886;23;20004;-80
2021/09/24 08:26:09;;;;;;;6.03;1.45;;;;;;;15.91;100.00;100600.22;6395868;23;20001;-81
2021/09/24 08:28:39;;;;;;;3.28;1.10;;;;;;;15.87;100.00;100607.44;6407414;23;20464;-80
2021/09/24 08:31:10;;;;;;;2.88;1.00;;;;;;;16.07;100.00;100612.44;6407914;23;20005;-80
2021/09/24 08:33:42;;;;;;;2.67;0.90;;;;;;;16.15;100.00;100602.31;6396258;23;20059;-81
2021/09/24 08:36:12;;;;;;;4.32;0.90;;;;;;;16.28;100.00;100603.31;6408566;23;20088;-80
2021/09/24 08:38:44;;;;;;;3.50;1.00;;;;;;;16.36;100.00;100603.72;6410928;23;20008;-80
2021/09/24 08:41:14;;;;;;;7.10;1.33;;;;;;;16.43;100.00;100604.22;6411577;23;20004;-80
2021/09/24 08:43:48;;;;;;;5.68;1.20;;;;;;;16.48;100.00;100605.66;6396853;23;20079;-81
2021/09/24 08:46:18;;;;;;;4.60;1.20;;;;;;;16.72;100.00;100606.81;6410516;23;20012;-80
2021/09/24 08:48:49;;;;;;;5.03;1.00;;;;;;;16.77;100.00;100605.59;6398591;23;20297;-81
2021/09/24 08:51:20;;;;;;;3.80;0.90;;;;;;;16.70;100.00;100598.13;6411311;23;20004;-80
2021/09/24 08:53:50;;;;;;;4.40;1.13;;;;;;;16.77;100.00;100605.59;6408223;23;20429;-80
2021/09/24 08:56:21;;;;;;;6.15;0.98;;;;;;;16.90;100.00;100597.78;6407370;23;20080;-81
2021/09/24 08:58:51;;;;;;;4.80;0.98;;;;;;;16.70;100.00;100605.22;6406922;23;20035;-79
2021/09/24 09:01:21;;;;;;;2.97;1.00;;;;;;;16.70;100.00;100603.41;6408946;23;20084;-79
2021/09/24 09:03:52;;;;;;;3.20;1.10;;;;;;;16.58;100.00;100596.22;6394205;23;20416;-79
2021/09/24 09:06:28;;;;;;;2.25;0.80;;;;;;;16.61;100.00;100593.44;6406986;23;19993;-79
2021/09/24 09:09:05;;;;;;;4.50;0.90;;;;;;;16.60;100.00;100597.00;6407779;23;20059;-80
2021/09/24 09:11:35;;;;;;;4.85;1.17;;;;;;;16.63;100.00;100588.03;6407903;23;20001;-79
2021/09/24 09:14:05;;;;;;;6.75;1.00;;;;;;;16.77;100.00;100585.41;6407668;23;20001;-79
2021/09/24 09:16:35;;;;;;;4.47;1.00;;;;;;;16.86;100.00;100589.22;6395999;23;19997;-79
2021/09/24 09:19:08;;;;;;;4.63;1.27;;;;;;;17.07;100.00;100577.31;6407628;23;20024;-80
2021/09/24 09:21:42;;;;;;;2.58;0.90;;;;;;;17.15;100.00;100579.50;6407584;23;20005;-79
2021/09/24 09:24:18;;;;;;;3.55;1.02;;;;;;;16.97;100.00;100576.19;6395429;23;20012;-80
2021/09/24 09:27:17;;;;;;;3.90;0.95;;;;;;;17.10;100.00;100581.56;6407586;23;20001;-79
2021/09/24 09:30:17;;;;;;;2.15;0.85;;;;;;;17.14;100.00;100580.44;6395761;23;20460;-80
2021/09/24 09:33:07;;;;;;;4.60;1.00;;;;;;;17.02;100.00;100574.13;6376507;23;20008;-79
2021/09/24 09:35:40;;;;;;;3.70;0.90;;;;;;;17.12;99.46;100577.06;6407331;23;19997;-80
2021/09/24 09:38:21;;;;;;;4.13;1.00;;;;;;;17.21;99.06;100579.97;6396228;23;20576;-80
2021/09/24 09:41:03;;;;;;;3.10;0.93;;;;;;;17.25;98.87;100581.47;6409506;23;20337;-79
2021/09/24 09:43:36;;;;;;;5.32;0.90;;;;;;;17.37;97.58;100574.59;6409750;23;20717;-79
2021/09/24 09:46:10;;;;;;;2.90;0.95;;;;;;;17.45;98.01;100569.69;6408978;23;19993;-80
2021/09/24 09:48:41;;;;;;;2.95;0.90;;;;;;;17.31;97.70;100569.66;6395990;23;20013;-79
2021/09/24 09:51:21;;;;;;;3.50;1.00;;;;;;;17.48;98.13;100569.47;6398635;23;20001;-82
2021/09/24 09:53:51;;;;;;;3.80;0.98;;;;;;;17.47;97.32;100565.16;6397805;23;20001;-79
2021/09/24 09:56:34;;;;;;;5.40;1.20;;;;;;;17.51;97.63;100566.63;6409178;23;20443;-79
2021/09/24 09:59:26;;;;;;;2.22;0.85;;;;;;;17.70;96.87;100556.56;6396606;23;20013;-79
2021/09/24 10:02:18;;;;;;;2.65;1.00;;;;;;;17.68;97.40;100558.47;6397142;23;20068;-79
2021/09/24 10:04:51;;;;;;;3.97;1.05;;;;;;;17.97;95.38;100557.44;6397359;23;20013;-79
2021/09/24 10:07:35;;;;;;;4.45;0.98;;;;;;;17.97;96.11;100557.44;6397125;23;20001;-79
2021/09/24 10:10:13;;;;;;;3.85;0.80;;;;;;;18.13;93.38;100556.28;6396823;23;20057;-79
2021/09/24 10:12:44;;;;;;;2.78;1.10;;;;;;;18.33;93.13;100552.34;6407008;23;20000;-78
2021/09/24 10:15:15;;;;;;;4.28;0.98;;;;;;;18.76;92.27;100558.09;6403935;23;19997;-79
2021/09/24 10:17:46;;;;;;;2.55;0.98;;;;;;;18.77;90.96;100556.31;6406255;23;20072;-79
2021/09/24 10:20:16;;;;;;;3.78;1.10;;;;;;;18.88;89.87;100557.25;6407205;23;20036;-79
2021/09/24 10:22:47;;;;;;;2.70;1.00;;;;;;;19.01;89.67;100552.78;6396236;23;20001;-79
2021/09/24 10:25:22;;;;;;;3.15;0.77;;;;;;;19.48;88.45;100552.91;6396628;23;20036;-80
2021/09/24 10:27:53;;;;;;;2.90;0.98;;;;;;;19.84;87.58;100544.94;6397413;23;20012;-80
2021/09/24 10:30:29;;;;;;;3.03;0.90;;;;;;;19.94;84.94;100553.06;6397684;23;20374;-80
2021/09/24 10:33:13;;;;;;;3.05;0.90;;;;;;;20.42;84.68;100552.91;6409864;23;20015;-79
2021/09/24 10:35:53;;;;;;;2.90;1.10;;;;;;;20.91;83.98;100546.34;6398103;23;20009;-79
2021/09/24 10:38:30;;;;;;;2.78;0.95;;;;;;;20.83;83.83;100543.47;6411532;23;20020;-80
2021/09/24 10:41:04;;;;;;;3.25;1.00;;;;;;;20.72;81.93;100545.22;6413150;23;20001;-80
2021/09/24 10:43:47;;;;;;;2.70;1.00;;;;;;;20.15;82.24;100547.00;6399616;23;20430;-80
2021/09/24 10:46:23;;;;;;;5.25;1.30;;;;;;;20.06;83.10;100538.91;6401884;23;20503;-80
2021/09/24 10:49:12;;;;;;;2.08;1.02;;;;;;;19.72;83.45;100535.22;6412141;23;20001;-80
2021/09/24 10:51:49;;;;;;;3.05;1.00;;;;;;;19.60;85.36;100536.13;6412763;23;20004;-78
2021/09/24 10:54:24;;;;;;;2.80;1.02;;;;;;;19.84;86.46;100534.31;6401275;23;20315;-79
2021/09/24 10:57:02;;;;;;;3.72;1.10;;;;;;;19.86;84.99;100535.06;6412986;23;20001;-80
2021/09/24 10:59:34;;;;;;;4.15;1.20;;;;;;;19.52;85.30;100533.19;6402443;23;20091;-80
2021/09/24 11:02:36;;;;;;;2.80;1.30;;;;;;;19.78;84.90;100542.72;6401194;23;20000;-78
2021/09/24 11:05:08;;;;;;;3.22;1.20;;;;;;;19.79;85.06;100532.97;6413798;23;19993;-79
2021/09/24 11:07:39;;;;;;;4.55;1.38;;;;;;;19.62;85.03;100534.19;6400611;23;20008;-80
2021/09/24 11:10:09;;;;;;;3.13;1.42;;;;;;;19.51;85.45;100534.16;6400422;23;20512;-80
2021/09/24 11:13:08;;;;;;;7.78;1.60;;;;;;;19.19;86.80;100525.00;6413005;23;20329;-80
2021/09/24 11:16:02;;;;;;;4.55;1.60;;;;;;;19.06;88.99;100526.81;6412874;23;20012;-79
2021/09/24 11:18:53;;;;;;;5.13;1.45;;;;;;;18.93;88.48;100528.63;6401771;23;20001;-78
2021/09/24 11:21:24;;;;;;;7.03;1.73;;;;;;;18.73;90.93;100532.78;6412957;23;20008;-80
2021/09/24 11:23:54;;;;;;;6.03;1.75;;;;;;;18.85;89.91;100533.63;6412769;23;19997;-80
2021/09/24 11:26:29;;;;;;;3.47;1.55;;;;;;;18.95;90.23;100526.72;6413157;23;20461;-79
2021/09/24 11:29:17;;;;;;;4.07;1.65;;;;;;;19.02;89.65;100522.69;6400218;23;20176;-80
2021/09/24 11:31:54;;;;;;;5.15;1.90;;;;;;;19.12;90.20;100529.00;6412346;23;20001;-81
2021/09/24 11:34:50;;;;;;;4.93;2.20;;;;;;;19.01;90.10;100526.28;6400069;23;20016;-79
2021/09/24 11:37:25;;;;;;;5.68;2.25;;;;;;;19.06;91.12;100525.94;6395149;23;20012;-78
2021/09/24 11:40:07;;;;;;;5.25;2.20;;;;;;;18.88;89.87;100522.81;6399617;23;20197;-79